Time;durP1;ratioP1;P1;durP2;ratioP2;P2;SDS_P1;SDS_P2;PMS_P1;PMS_P2;Temp;Humidity;BMP_temperature;BMP_pressure;BME280_temperature;BME280_humidity;BME280_pressure;Samples;Min_cycle;Max_cycle;Signal;HPM_P1;HPM_P2
2022/04/03 00:01:26;;;;;;;20.20;17.77;;;;;;;2.17;82.08;100609.50;5105151;28;20761;-84
2022/04/03 00:03:51;;;;;;;21.35;19.02;;;;;;;2.19;81.16;100615.47;5110748;28;20415;-84
2022/04/03 00:06:17;;;;;;;23.05;19.65;;;;;;;2.21;81.40;100616.09;5099179;28;20386;-84
2022/04/03 00:08:42;;;;;;;22.95;19.35;;;;;;;2.21;81.81;100614.25;5104747;28;20888;-84
2022/04/03 00:11:09;;;;;;;20.17;16.53;;;;;;;2.19;81.69;100610.13;5107328;28;20384;-83
2022/04/03 00:13:34;;;;;;;17.30;15.50;;;;;;;2.15;80.79;100616.84;5109031;27;20494;-84
2022/04/03 00:15:59;;;;;;;21.70;19.03;;;;;;;2.11;80.66;100605.69;5098837;27;20501;-84
2022/04/03 00:18:25;;;;;;;19.95;17.42;;;;;;;2.07;81.13;100609.78;5104772;27;20409;-84
2022/04/03 00:20:51;;;;;;;20.50;16.60;;;;;;;2.03;81.31;100616.50;5107328;27;20397;-84
2022/04/03 00:23:16;;;;;;;20.83;17.80;;;;;;;1.98;81.11;100618.88;5107574;28;20461;-84
2022/04/03 00:25:41;;;;;;;19.90;17.00;;;;;;;1.97;81.51;100617.25;5097144;27;20442;-84
2022/04/03 00:28:07;;;;;;;19.63;16.53;;;;;;;1.92;81.86;100625.81;5115668;27;20928;-84
2022/04/03 00:30:34;;;;;;;17.75;15.77;;;;;;;1.93;81.21;100626.66;5120268;27;20449;-84
2022/04/03 00:32:59;;;;;;;15.75;14.10;;;;;;;1.95;81.62;100616.59;5111096;28;20422;-84
2022/04/03 00:35:24;;;;;;;16.45;14.27;;;;;;;1.98;81.27;100619.72;5099109;28;20402;-84
2022/04/03 00:37:50;;;;;;;15.33;13.23;;;;;;;2.00;80.69;100633.75;5111885;28;20404;-85
2022/04/03 00:40:16;;;;;;;15.23;13.57;;;;;;;2.00;81.43;100628.41;5111486;27;20396;-85
2022/04/03 00:42:41;;;;;;;16.15;13.43;;;;;;;1.98;81.33;100619.72;5107514;27;20896;-85
2022/04/03 00:45:07;;;;;;;16.00;13.33;;;;;;;1.99;81.13;100621.41;5115881;27;20411;-85
2022/04/03 00:47:33;;;;;;;17.77;13.82;;;;;;;1.99;81.36;100625.91;5110143;28;20390;-85
2022/04/03 00:50:00;;;;;;;18.88;15.30;;;;;;;1.98;81.37;100629.59;5104636;28;20447;-85
2022/04/03 00:52:26;;;;;;;16.98;13.75;;;;;;;2.00;81.43;100633.75;5092312;28;20382;-85
2022/04/03 00:54:51;;;;;;;15.87;14.10;;;;;;;2.03;81.50;100628.03;5109427;28;20851;-85
2022/04/03 00:57:20;;;;;;;18.43;16.53;;;;;;;2.06;80.99;100632.16;5095694;28;20404;-84
2022/04/03 00:59:48;;;;;;;20.45;18.35;;;;;;;2.08;81.08;100638.16;5112330;27;20408;-85
2022/04/03 01:02:13;;;;;;;23.27;19.95;;;;;;;2.12;81.26;100633.25;5110469;28;20938;-85
2022/04/03 01:04:39;;;;;;;24.07;20.90;;;;;;;2.13;81.67;100630.41;5105940;28;20501;-86
2022/04/03 01:07:05;;;;;;;23.63;21.10;;;;;;;2.14;81.60;100636.59;5109367;27;20429;-85
2022/04/03 01:09:31;;;;;;;29.08;22.88;;;;;;;2.15;81.96;100630.22;5109345;27;20432;-85
2022/04/03 01:11:56;;;;;;;24.23;21.67;;;;;;;2.17;81.85;100639.72;5108700;28;20432;-85
2022/04/03 01:14:38;;;;;;;23.07;19.63;;;;;;;2.18;82.24;100636.03;5109497;28;20408;-85
2022/04/03 01:17:04;;;;;;;23.27;20.83;;;;;;;2.20;81.63;100636.69;5106269;27;20481;-86
2022/04/03 01:19:30;;;;;;;24.58;21.98;;;;;;;2.23;81.65;100633.63;5114232;27;20404;-85
2022/04/03 01:21:56;;;;;;;23.33;20.65;;;;;;;2.25;81.64;100631.59;5104125;27;20411;-86
2022/04/03 01:24:22;;;;;;;24.15;20.42;;;;;;;2.26;81.56;100630.59;5104856;27;20776;-86
2022/04/03 01:26:48;;;;;;;23.00;20.65;;;;;;;2.26;81.70;100635.09;5102983;27;20405;-85
2022/04/03 01:29:15;;;;;;;28.23;21.83;;;;;;;2.28;81.63;100631.22;5110101;27;20407;-85
2022/04/03 01:31:41;;;;;;;24.50;21.80;;;;;;;2.28;81.64;100625.03;5102918;28;20396;-85
2022/04/03 01:34:07;;;;;;;23.35;20.38;;;;;;;2.30;81.69;100625.69;5116372;27;20401;-86
2022/04/03 01:36:32;;;;;;;22.92;20.55;;;;;;;2.31;81.85;100630.84;5110123;27;20404;-85
2022/04/03 01:38:58;;;;;;;26.42;21.67;;;;;;;2.32;82.10;100627.16;5112706;28;20431;-85
2022/04/03 01:41:23;;;;;;;23.27;20.30;;;;;;;2.32;82.36;100624.47;5110892;27;20878;-86
2022/04/03 01:43:48;;;;;;;21.50;19.30;;;;;;;2.32;82.24;100631.66;5106742;28;20403;-85
2022/04/03 01:46:13;;;;;;;22.08;19.52;;;;;;;2.35;81.94;100629.47;5103188;27;20479;-85
2022/04/03 01:48:39;;;;;;;22.73;20.17;;;;;;;2.36;81.73;100633.78;5110408;28;20400;-86
2022/04/03 01:51:04;;;;;;;22.33;20.00;;;;;;;2.35;81.62;100631.28;5116828;27;20392;-86
2022/04/03 01:53:29;;;;;;;22.23;20.00;;;;;;;2.35;82.09;100633.97;5108259;27;20491;-85
2022/04/03 01:56:07;;;;;;;21.63;19.43;;;;;;;2.31;81.24;100635.34;5107535;28;20878;-86
2022/04/03 01:58:34;;;;;;;22.37;19.83;;;;;;;2.27;81.49;100629.56;5107418;27;20914;-86
2022/04/03 02:01:00;;;;;;;22.95;20.65;;;;;;;2.26;81.80;100632.41;5109369;28;20396;-86
2022/04/03 02:03:26;;;;;;;27.40;20.95;;;;;;;2.25;81.75;100636.94;5105336;28;20461;-86
2022/04/03 02:05:52;;;;;;;23.65;21.08;;;;;;;2.25;81.71;100631.59;5110201;27;20393;-85
2022/04/03 02:08:17;;;;;;;25.45;22.75;;;;;;;2.25;81.80;100633.44;5106844;28;20394;-85
2022/04/03 02:10:43;;;;;;;25.93;23.10;;;;;;;2.25;82.20;100634.25;5106416;28;20424;-86
2022/04/03 02:13:08;;;;;;;25.23;22.53;;;;;;;2.26;82.76;100637.78;5105465;28;20407;-86
2022/04/03 02:15:34;;;;;;;25.63;22.93;;;;;;;2.27;83.16;100634.09;5111562;28;20407;-86
2022/04/03 02:17:59;;;;;;;29.60;25.33;;;;;;;2.26;83.20;100630.59;5107176;28;20409;-86
2022/04/03 02:20:25;;;;;;;30.50;26.65;;;;;;;2.28;82.90;100631.22;5100845;28;20401;-86
2022/04/03 02:22:50;;;;;;;29.30;26.10;;;;;;;2.27;83.40;100639.44;5103296;28;20869;-86
2022/04/03 02:25:16;;;;;;;31.53;25.73;;;;;;;2.26;83.19;100638.59;5101324;28;20517;-87
2022/04/03 02:27:45;;;;;;;31.83;24.93;;;;;;;2.26;83.18;100640.44;5107503;28;20408;-84
2022/04/03 02:30:10;;;;;;;30.33;26.53;;;;;;;2.27;83.22;100640.28;5109624;28;20411;-86
2022/04/03 02:32:40;;;;;;;32.43;27.10;;;;;;;2.31;83.12;100640.69;5114648;28;20404;-86
2022/04/03 02:35:08;;;;;;;28.63;25.52;;;;;;;2.31;83.12;100636.19;5109328;28;20388;-86
2022/04/03 02:37:34;;;;;;;28.37;25.30;;;;;;;2.32;83.45;100642.38;5108538;28;20418;-86
2022/04/03 02:40:00;;;;;;;28.85;25.48;;;;;;;2.33;83.24;100644.88;5118465;27;20396;-86
2022/04/03 02:42:25;;;;;;;28.60;25.40;;;;;;;2.32;82.79;100643.19;5105191;28;20400;-87
2022/04/03 02:44:51;;;;;;;30.40;26.93;;;;;;;2.34;83.16;100648.38;5107319;28;20396;-87
2022/04/03 02:47:17;;;;;;;27.92;23.52;;;;;;;2.34;83.77;100651.06;5108744;28;20394;-86
2022/04/03 02:49:42;;;;;;;26.33;23.43;;;;;;;2.34;83.56;100643.84;5106419;28;20812;-87
2022/04/03 02:52:07;;;;;;;24.60;21.30;;;;;;;2.35;83.27;100648.19;5102587;28;20842;-87
2022/04/03 02:54:33;;;;;;;25.47;21.33;;;;;;;2.38;82.90;100650.47;5111129;28;20406;-87
2022/04/03 02:56:58;;;;;;;25.53;21.87;;;;;;;2.40;82.52;100651.13;5109702;28;20403;-87
2022/04/03 02:59:23;;;;;;;27.50;21.40;;;;;;;2.41;82.61;100646.59;5109061;28;20443;-87
2022/04/03 03:01:48;;;;;;;25.37;22.07;;;;;;;2.41;82.71;100650.09;5112228;27;20767;-86
2022/04/03 03:04:14;;;;;;;27.03;23.00;;;;;;;2.42;82.60;100653.59;5117292;27;20400;-87
2022/04/03 03:06:40;;;;;;;24.98;20.77;;;;;;;2.41;82.86;100655.44;5106195;27;20397;-87
2022/04/03 03:09:05;;;;;;;21.80;19.40;;;;;;;2.40;82.35;100655.66;5103090;27;20378;-87
2022/04/03 03:11:30;;;;;;;21.50;19.23;;;;;;;2.37;81.82;100645.31;5109620;27;20817;-87
2022/04/03 03:13:56;;;;;;;21.58;19.35;;;;;;;2.41;82.00;100646.59;5110514;27;20408;-86
2022/04/03 03:16:21;;;;;;;21.00;18.87;;;;;;;2.42;82.47;100654.44;5114741;28;20857;-87
2022/04/03 03:18:46;;;;;;;23.20;19.87;;;;;;;2.43;81.78;100652.59;5112338;27;20436;-87
2022/04/03 03:21:11;;;;;;;20.00;17.90;;;;;;;2.43;82.02;100653.44;5112958;27;20477;-86
2022/04/03 03:23:40;;;;;;;20.13;17.77;;;;;;;2.44;82.00;100657.75;5110394;27;20863;-87
2022/04/03 03:26:05;;;;;;;16.75;14.75;;;;;;;2.46;81.30;100661.06;5113150;27;20395;-87
2022/04/03 03:28:31;;;;;;;16.98;13.82;;;;;;;2.46;81.00;100657.56;5112469;27;20476;-87
2022/04/03 03:30:56;;;;;;;15.33;13.73;;;;;;;2.45;79.70;100659.41;5108737;28;20412;-87
2022/04/03 03:33:21;;;;;;;16.27;13.40;;;;;;;2.46;79.47;100658.41;5099059;27;20840;-87
2022/04/03 03:35:47;;;;;;;14.10;12.70;;;;;;;2.49;79.29;100659.88;5107056;27;20396;-86
2022/04/03 03:38:12;;;;;;;13.73;12.03;;;;;;;2.46;77.99;100663.75;5119514;27;20412;-86
2022/04/03 03:40:39;;;;;;;12.63;11.43;;;;;;;2.47;77.71;100657.38;5109308;27;20404;-87
2022/04/03 03:43:04;;;;;;;12.85;11.55;;;;;;;2.41;77.33;100660.78;5103233;27;20408;-87
2022/04/03 03:45:30;;;;;;;12.90;11.60;;;;;;;2.41;76.83;100659.97;5108532;27;20392;-87
2022/04/03 03:47:57;;;;;;;12.57;10.90;;;;;;;2.43;76.84;100652.59;5106280;27;20391;-87
2022/04/03 03:50:23;;;;;;;12.13;10.93;;;;;;;2.45;77.01;100663.94;5101259;27;20560;-87
2022/04/03 03:52:48;;;;;;;12.13;10.80;;;;;;;2.45;76.27;100661.25;5110395;28;20400;-87
2022/04/03 03:55:13;;;;;;;11.57;10.43;;;;;;;2.45;76.41;100658.56;5106455;28;20831;-87
2022/04/03 03:57:39;;;;;;;12.13;10.50;;;;;;;2.47;76.50;100669.94;5121187;27;20415;-87
2022/04/03 04:00:06;;;;;;;11.20;10.00;;;;;;;2.45;75.82;100670.09;5110055;27;20763;-87
2022/04/03 04:02:31;;;;;;;11.15;9.95;;;;;;;2.42;75.61;100667.81;5112566;27;20403;-87
2022/04/03 04:04:57;;;;;;;11.43;10.13;;;;;;;2.44;76.43;100678.31;5112976;28;20751;-87
2022/04/03 04:07:22;;;;;;;10.77;9.67;;;;;;;2.45;76.42;100675.47;5112506;28;20392;-87
2022/04/03 04:09:48;;;;;;;10.93;9.87;;;;;;;2.50;76.17;100678.38;5092211;28;20782;-86
2022/04/03 04:12:13;;;;;;;11.43;9.70;;;;;;;2.53;76.93;100683.41;5103166;27;20511;-87
2022/04/03 04:14:38;;;;;;;14.70;10.55;;;;;;;2.52;76.95;100683.56;5096958;28;20892;-87
2022/04/03 04:17:06;;;;;;;10.87;9.77;;;;;;;2.52;76.57;100680.88;5101969;27;20414;-87
2022/04/03 04:19:31;;;;;;;10.63;9.55;;;;;;;2.51;76.21;100682.72;5108532;28;20399;-87
2022/04/03 04:21:56;;;;;;;10.63;9.05;;;;;;;2.51;76.45;100682.72;5105953;28;20402;-87
2022/04/03 04:24:21;;;;;;;10.57;9.57;;;;;;;2.51;75.98;100684.56;5111120;27;20404;-87
2022/04/03 04:26:47;;;;;;;11.27;10.07;;;;;;;2.53;75.48;100688.75;5108331;27;20417;-84
2022/04/03 04:29:12;;;;;;;11.33;10.23;;;;;;;2.53;76.17;100694.09;5106148;27;20472;-86
2022/04/03 04:31:37;;;;;;;10.57;9.40;;;;;;;2.51;75.93;100693.44;5107722;27;20406;-87
2022/04/03 04:34:03;;;;;;;11.05;9.57;;;;;;;2.51;76.07;100701.47;5103297;27;20859;-87
2022/04/03 04:36:29;;;;;;;11.15;9.93;;;;;;;2.47;76.09;100697.50;5109556;28;20409;-87
2022/04/03 04:38:55;;;;;;;10.05;8.95;;;;;;;2.47;75.76;100697.50;5109448;27;20420;-87
2022/04/03 04:41:21;;;;;;;13.20;9.98;;;;;;;2.48;75.13;100704.50;5112789;27;20733;-87
2022/04/03 04:43:46;;;;;;;10.40;9.33;;;;;;;2.49;75.69;100705.34;5113086;27;20479;-87
2022/04/03 04:46:12;;;;;;;10.70;9.53;;;;;;;2.48;76.08;100706.34;5111895;27;20385;-87
2022/04/03 04:48:37;;;;;;;12.10;10.90;;;;;;;2.51;76.65;100709.47;5109660;27;20397;-87
2022/04/03 04:51:03;;;;;;;13.30;11.98;;;;;;;2.53;77.29;100715.50;5110381;27;20909;-88
2022/04/03 04:53:28;;;;;;;13.85;12.45;;;;;;;2.55;77.72;100715.28;5113234;28;20393;-87
2022/04/03 04:55:54;;;;;;;17.63;13.82;;;;;;;2.53;77.86;100714.66;5109569;27;20443;-87
2022/04/03 04:58:20;;;;;;;15.23;13.63;;;;;;;2.52;78.91;100721.00;5117590;27;20878;-87
2022/04/03 05:00:45;;;;;;;15.02;13.52;;;;;;;2.51;78.98;100720.19;5104364;27;20799;-87
2022/04/03 05:03:11;;;;;;;14.57;12.98;;;;;;;2.53;78.78;100725.38;5103275;27;20880;-87
2022/04/03 05:05:36;;;;;;;13.40;12.02;;;;;;;2.53;78.94;100725.38;5111979;28;20396;-87
2022/04/03 05:08:02;;;;;;;12.05;10.75;;;;;;;2.53;79.04;100712.81;5112145;27;20878;-87
2022/04/03 05:10:30;;;;;;;12.20;10.95;;;;;;;2.54;78.47;100721.66;5112888;27;20403;-85
2022/04/03 05:12:56;;;;;;;13.35;11.82;;;;;;;2.52;78.46;100726.38;5103774;28;20447;-86
2022/04/03 05:15:22;;;;;;;15.82;14.20;;;;;;;2.51;79.11;100730.03;5108430;27;20427;-86
2022/04/03 05:17:47;;;;;;;18.00;15.97;;;;;;;2.49;78.96;100732.09;5106396;27;20416;-87
2022/04/03 05:20:14;;;;;;;19.20;15.57;;;;;;;2.50;79.31;100733.75;5105870;27;20400;-86
2022/04/03 05:22:41;;;;;;;19.65;15.93;;;;;;;2.49;79.00;100740.13;5110074;27;20483;-87
2022/04/03 05:25:10;;;;;;;16.88;15.15;;;;;;;2.47;79.01;100734.94;5113096;27;20411;-87
2022/04/03 05:27:36;;;;;;;19.20;16.02;;;;;;;2.45;79.35;100736.97;5110797;28;20521;-86
2022/04/03 05:30:03;;;;;;;18.03;15.57;;;;;;;2.45;79.59;100750.34;5110209;27;20954;-87
2022/04/03 05:32:30;;;;;;;18.50;15.30;;;;;;;2.44;79.50;100745.19;5107840;27;20449;-87
2022/04/03 05:34:57;;;;;;;17.55;15.68;;;;;;;2.43;78.95;100754.25;5106862;27;20891;-87
2022/04/03 05:37:23;;;;;;;17.02;15.23;;;;;;;2.43;79.20;100747.03;5100959;27;20420;-87
2022/04/03 05:39:49;;;;;;;17.20;15.38;;;;;;;2.43;78.96;100752.41;5100716;28;20416;-87
2022/04/03 05:42:15;;;;;;;19.02;16.58;;;;;;;2.42;79.75;100747.22;5102980;28;20413;-86
2022/04/03 05:44:40;;;;;;;19.70;16.47;;;;;;;2.41;79.46;100751.72;5102733;28;20507;-87
2022/04/03 05:47:06;;;;;;;18.37;16.37;;;;;;;2.42;79.65;100752.56;5101842;27;20408;-86
2022/04/03 05:49:31;;;;;;;18.37;16.37;;;;;;;2.45;79.59;100753.03;5109612;27;20775;-85
2022/04/03 05:51:56;;;;;;;16.83;15.03;;;;;;;2.49;79.71;100748.16;5107813;27;20499;-87
2022/04/03 05:54:22;;;;;;;17.40;15.60;;;;;;;2.51;79.02;100762.97;5095423;28;20417;-86
2022/04/03 05:56:48;;;;;;;17.67;15.37;;;;;;;2.50;78.99;100758.63;5104032;28;20439;-84
2022/04/03 05:59:13;;;;;;;18.73;15.60;;;;;;;2.52;79.27;100755.78;5111831;28;20380;-85
2022/04/03 06:01:38;;;;;;;17.30;15.50;;;;;;;2.55;79.02;100760.78;5103908;28;20408;-86
2022/04/03 06:04:07;;;;;;;17.83;15.93;;;;;;;2.60;79.33;100761.06;5098951;27;20500;-88
2022/04/03 06:06:32;;;;;;;19.63;16.13;;;;;;;2.63;79.06;100771.38;5107095;28;20412;-87
2022/04/03 06:08:58;;;;;;;18.47;16.43;;;;;;;2.69;78.70;100769.81;5102181;27;22160;-86
2022/04/03 06:11:23;;;;;;;17.53;15.63;;;;;;;2.75;78.96;100775.25;5096362;28;20382;-87
2022/04/03 06:13:49;;;;;;;18.02;16.15;;;;;;;2.82;79.18;100778.00;5096665;28;20908;-87
2022/04/03 06:16:14;;;;;;;17.83;15.93;;;;;;;2.86;79.16;100774.78;5110336;28;20488;-86
2022/04/03 06:18:39;;;;;;;17.63;15.73;;;;;;;2.91;78.43;100793.78;5106713;28;20480;-85
2022/04/03 06:21:05;;;;;;;17.43;15.53;;;;;;;2.92;78.52;100787.41;5110329;28;20403;-84
2022/04/03 06:23:30;;;;;;;23.00;17.43;;;;;;;2.99;78.41;100792.84;5092631;28;20948;-84
2022/04/03 06:25:57;;;;;;;19.23;13.97;;;;;;;3.01;77.54;100791.63;5112391;28;20391;-83
2022/04/03 06:28:23;;;;;;;17.05;13.98;;;;;;;3.02;76.94;100795.13;5102625;28;20428;-84
2022/04/03 06:30:48;;;;;;;12.83;11.10;;;;;;;3.10;76.83;100795.84;5104073;28;20394;-86
2022/04/03 06:33:14;;;;;;;11.60;9.90;;;;;;;3.14;76.29;100796.31;5095939;28;20843;-85
2022/04/03 06:35:40;;;;;;;13.10;10.15;;;;;;;3.13;75.21;100798.16;5111286;28;20409;-84
2022/04/03 06:38:05;;;;;;;13.48;11.07;;;;;;;3.10;74.62;100800.38;5105684;28;20564;-85
2022/04/03 06:40:35;;;;;;;15.57;12.63;;;;;;;3.17;74.33;100800.44;5109078;28;20404;-84
2022/04/03 06:43:01;;;;;;;14.45;10.25;;;;;;;3.17;73.63;100803.13;5113881;28;20416;-84
2022/04/03 06:45:27;;;;;;;9.55;8.65;;;;;;;3.22;73.79;100808.75;5107400;27;20421;-85
2022/04/03 06:47:53;;;;;;;8.95;7.28;;;;;;;3.33;73.76;100809.09;5109362;28;20804;-85
2022/04/03 06:50:19;;;;;;;9.60;7.43;;;;;;;3.46;72.96;100817.25;5113436;27;20495;-87
2022/04/03 06:52:45;;;;;;;8.77;7.88;;;;;;;3.53;72.58;100815.50;5111764;27;20434;-85
2022/04/03 06:55:10;;;;;;;7.83;7.10;;;;;;;3.50;71.35;100820.41;5111732;27;20435;-85
2022/04/03 06:57:36;;;;;;;9.90;7.37;;;;;;;3.59;71.29;100824.59;5114708;27;20405;-84
2022/04/03 07:00:06;;;;;;;7.50;6.80;;;;;;;3.57;70.59;100818.63;5107440;28;20807;-87
2022/04/03 07:02:33;;;;;;;6.75;5.85;;;;;;;3.62;70.53;100825.06;5101919;27;20406;-85
2022/04/03 07:04:58;;;;;;;7.82;7.10;;;;;;;3.75;70.06;100821.69;5111093;27;20395;-86
2022/04/03 07:07:25;;;;;;;8.23;7.13;;;;;;;3.86;70.06;100825.69;5111639;27;20962;-87
2022/04/03 07:09:51;;;;;;;6.63;5.97;;;;;;;3.92;69.18;100828.44;5108764;27;20446;-88
2022/04/03 07:12:17;;;;;;;6.80;6.18;;;;;;;3.87;68.68;100833.56;5113350;27;20403;-86
2022/04/03 07:14:42;;;;;;;7.18;6.18;;;;;;;3.88;68.75;100835.22;5112078;27;20549;-87
2022/04/03 07:17:08;;;;;;;6.47;5.83;;;;;;;3.89;68.63;100836.03;5115044;27;20739;-87
2022/04/03 07:19:34;;;;;;;7.57;6.57;;;;;;;3.86;68.45;100837.25;5109072;27;20408;-87
2022/04/03 07:21:59;;;;;;;8.87;7.20;;;;;;;3.96;68.71;100839.59;5115113;27;20921;-85
2022/04/03 07:24:25;;;;;;;8.80;7.03;;;;;;;4.13;68.61;100838.31;5111229;28;20392;-84
2022/04/03 07:26:51;;;;;;;8.02;6.78;;;;;;;4.29;69.28;100838.03;5111347;27;20420;-85
2022/04/03 07:29:16;;;;;;;9.55;7.75;;;;;;;4.48;68.30;100841.91;5105238;28;20410;-87
2022/04/03 07:31:41;;;;;;;7.43;6.72;;;;;;;4.59;67.78;100850.22;5105892;27;20408;-87
2022/04/03 07:34:07;;;;;;;8.17;7.33;;;;;;;4.48;67.92;100847.28;5105305;28;20411;-86
2022/04/03 07:36:32;;;;;;;8.03;7.30;;;;;;;4.52;67.86;100845.84;5108261;27;20404;-86
2022/04/03 07:38:57;;;;;;;6.53;6.00;;;;;;;4.60;66.62;100851.06;5113104;27;20420;-86
2022/04/03 07:41:23;;;;;;;5.77;5.07;;;;;;;4.41;65.16;100838.34;5109057;27;20844;-87
2022/04/03 07:43:48;;;;;;;6.13;5.60;;;;;;;4.48;65.56;100845.41;5112597;27;20400;-88
2022/04/03 07:46:16;;;;;;;7.60;6.07;;;;;;;4.57;64.96;100844.25;5100392;28;20416;-88
2022/04/03 07:48:42;;;;;;;6.63;5.93;;;;;;;4.69;65.06;100852.56;5114643;27;20444;-89
2022/04/03 07:51:07;;;;;;;5.20;4.70;;;;;;;4.90;64.24;100857.88;5115177;28;20424;-88
2022/04/03 07:53:32;;;;;;;5.33;4.93;;;;;;;4.97;62.43;100856.00;5109477;27;20400;-88
2022/04/03 07:55:58;;;;;;;5.00;4.60;;;;;;;4.83;62.60;100859.69;5106954;27;20414;-89
2022/04/03 07:58:23;;;;;;;6.63;4.60;;;;;;;4.77;62.60;100865.84;5116474;27;20446;-88
2022/04/03 08:01:05;;;;;;;4.70;4.40;;;;;;;4.83;62.85;100859.69;5113268;27;20462;-87
2022/04/03 08:03:31;;;;;;;4.75;4.35;;;;;;;5.05;61.99;100858.56;5106044;28;20397;-87
2022/04/03 08:05:57;;;;;;;5.18;4.78;;;;;;;5.13;62.03;100862.94;5113315;28;20415;-86
2022/04/03 08:08:22;;;;;;;5.88;5.38;;;;;;;5.14;61.98;100870.78;5099695;28;20406;-87
2022/04/03 08:10:47;;;;;;;5.23;4.83;;;;;;;5.03;61.40;100866.00;5109288;28;20747;-87
2022/04/03 08:13:14;;;;;;;5.20;4.70;;;;;;;5.06;60.46;100867.44;5108386;27;20440;-87
2022/04/03 08:15:39;;;;;;;6.53;4.40;;;;;;;4.99;60.65;100867.41;5101924;28;20414;-84
2022/04/03 08:18:05;;;;;;;5.87;5.20;;;;;;;5.09;61.62;100865.19;5102668;28;20487;-84
2022/04/03 08:20:30;;;;;;;5.20;4.73;;;;;;;5.08;60.70;100874.28;5107375;28;20409;-87
2022/04/03 08:22:56;;;;;;;5.77;5.20;;;;;;;5.18;62.50;100864.00;5121552;27;20400;-86
2022/04/03 08:25:21;;;;;;;5.18;4.78;;;;;;;5.16;61.79;100873.28;5109018;28;20430;-88
2022/04/03 08:27:54;;;;;;;5.80;4.73;;;;;;;4.99;61.49;100874.63;5110839;28;20433;-86
2022/04/03 08:30:23;;;;;;;7.53;5.07;;;;;;;5.06;61.09;100873.66;5101838;27;20429;-86
2022/04/03 08:32:49;;;;;;;5.28;4.78;;;;;;;5.14;61.02;100875.31;5114575;27;20483;-85
2022/04/03 08:35:15;;;;;;;5.17;4.77;;;;;;;5.17;61.39;100877.63;5105854;28;20472;-87
2022/04/03 08:37:41;;;;;;;5.05;4.65;;;;;;;5.48;61.94;100880.66;5105596;28;20411;-83
2022/04/03 08:40:08;;;;;;;5.15;4.55;;;;;;;5.90;59.28;100882.22;5111693;28;20448;-86
2022/04/03 08:42:35;;;;;;;5.13;4.07;;;;;;;6.26;58.53;100881.84;5103690;28;20400;-83
2022/04/03 08:45:00;;;;;;;4.72;4.32;;;;;;;6.26;57.10;100888.06;5103119;28;20462;-84
2022/04/03 08:47:26;;;;;;;5.73;4.50;;;;;;;6.15;57.60;100877.94;5106344;28;20413;-86
2022/04/03 08:49:57;;;;;;;4.97;4.47;;;;;;;6.10;57.14;100885.78;5116093;28;20377;-84
2022/04/03 08:52:22;;;;;;;5.32;4.75;;;;;;;6.26;57.47;100885.38;5108878;27;20436;-87
2022/04/03 08:54:48;;;;;;;5.27;3.43;;;;;;;6.62;55.42;100884.13;5110683;27;20500;-85
2022/04/03 08:57:14;;;;;;;3.85;3.55;;;;;;;6.63;54.61;100883.94;5116606;27;20405;-85
2022/04/03 08:59:39;;;;;;;4.00;3.70;;;;;;;6.30;53.70;100876.88;5116505;27;20528;-86
2022/04/03 09:02:04;;;;;;;4.97;4.10;;;;;;;6.04;55.21;100880.41;5112958;28;20392;-85
2022/04/03 09:04:31;;;;;;;4.57;4.17;;;;;;;5.82;56.78;100878.88;5117637;27;20391;-86
2022/04/03 09:06:58;;;;;;;4.00;3.70;;;;;;;5.64;57.66;100882.13;5109014;28;21019;-85
2022/04/03 09:09:25;;;;;;;4.53;3.53;;;;;;;5.29;56.61;100888.63;5101669;28;20421;-82
2022/04/03 09:12:11;;;;;;;3.22;2.92;;;;;;;5.03;56.62;100882.09;5096534;28;21015;-85
2022/04/03 09:14:46;;;;;;;4.20;3.40;;;;;;;4.94;57.34;100891.34;5100850;28;20839;-85
2022/04/03 09:17:11;;;;;;;6.35;4.18;;;;;;;4.78;58.00;100890.81;5107189;28;20416;-83
2022/04/03 09:19:36;;;;;;;4.78;4.32;;;;;;;4.74;58.41;100894.94;5093949;28;20433;-82
2022/04/03 09:22:02;;;;;;;4.17;3.77;;;;;;;4.71;58.60;100896.97;5110277;27;20407;-82
2022/04/03 09:24:28;;;;;;;5.87;4.40;;;;;;;4.69;59.59;100896.34;5102446;27;20888;-83
2022/04/03 09:26:58;;;;;;;5.85;4.03;;;;;;;4.64;59.80;100897.97;5106289;27;20872;-83
2022/04/03 09:29:24;;;;;;;5.13;4.22;;;;;;;4.58;59.99;100901.41;5097010;28;21164;-85
2022/04/03 09:31:57;;;;;;;5.93;4.70;;;;;;;4.48;60.08;100899.06;5084068;28;20425;-83
2022/04/03 09:34:25;;;;;;;6.23;4.80;;;;;;;4.52;59.59;100904.88;5083294;28;20451;-84
2022/04/03 09:36:59;;;;;;;5.15;4.75;;;;;;;4.53;59.74;100901.19;5083000;27;20400;-85
2022/04/03 09:39:27;;;;;;;5.18;4.20;;;;;;;4.59;60.90;100911.13;5090656;28;20466;-84
2022/04/03 09:41:58;;;;;;;4.68;4.22;;;;;;;4.46;60.50;100908.34;5085640;28;22394;-85
2022/04/03 09:44:28;;;;;;;4.22;3.53;;;;;;;4.35;59.42;100907.00;5084745;28;20402;-85
2022/04/03 09:47:26;;;;;;;4.50;4.00;;;;;;;4.38;60.24;100908.50;5087039;28;20401;-84
2022/04/03 09:49:59;;;;;;;6.82;4.72;;;;;;;4.38;61.15;100913.88;5086701;28;20428;-85
2022/04/03 09:52:43;;;;;;;6.47;4.60;;;;;;;4.50;61.13;100915.81;5078471;28;20436;-84
2022/04/03 09:55:19;;;;;;;6.07;4.70;;;;;;;4.63;61.76;100915.94;5086049;28;20400;-85
2022/04/03 09:57:49;;;;;;;9.63;4.90;;;;;;;4.70;61.04;100919.50;5086329;27;20442;-85
2022/04/03 10:00:41;;;;;;;5.55;5.03;;;;;;;4.69;61.83;100915.16;5085380;28;20415;-85
2022/04/03 10:03:10;;;;;;;6.57;5.45;;;;;;;4.64;62.70;100924.81;5100125;28;20410;-84
2022/04/03 10:05:36;;;;;;;5.70;5.20;;;;;;;4.51;63.09;100912.09;5106434;28;20396;-83
2022/04/03 10:08:04;;;;;;;4.93;4.53;;;;;;;4.42;61.68;100926.69;5094684;28;20412;-85
2022/04/03 10:10:30;;;;;;;5.32;4.82;;;;;;;4.35;61.09;100923.13;5093946;28;20404;-87
2022/04/03 10:12:57;;;;;;;5.28;4.78;;;;;;;4.38;62.80;100929.97;5102065;28;20483;-86
2022/04/03 10:15:27;;;;;;;5.50;5.00;;;;;;;4.36;61.52;100921.25;5108008;28;20400;-86
2022/04/03 10:17:53;;;;;;;5.53;5.00;;;;;;;4.40;61.25;100922.53;5103263;28;20490;-85
2022/04/03 10:20:18;;;;;;;6.13;4.35;;;;;;;4.33;61.25;100918.97;5105690;27;20398;-85
2022/04/03 10:22:49;;;;;;;6.32;4.60;;;;;;;4.25;61.36;100921.81;5105670;28;20384;-85
2022/04/03 10:25:19;;;;;;;5.65;5.03;;;;;;;4.33;61.90;100917.13;5108815;27;20462;-85
2022/04/03 10:27:47;;;;;;;6.30;5.32;;;;;;;4.46;62.22;100913.72;5109737;28;20412;-85
2022/04/03 10:30:17;;;;;;;5.43;4.93;;;;;;;4.59;61.78;100914.66;5108245;28;20446;-85
2022/04/03 10:32:58;;;;;;;6.03;5.53;;;;;;;4.72;62.61;100914.75;5106953;28;20408;-85
2022/04/03 10:35:24;;;;;;;15.60;12.00;;;;;;;4.81;62.57;100918.09;5095992;28;20402;-84
2022/04/03 10:37:59;;;;;;;5.87;5.37;;;;;;;4.94;62.36;100915.50;5112289;28;20477;-86
2022/04/03 10:40:30;;;;;;;6.93;5.05;;;;;;;4.93;61.82;100916.56;5095223;28;20437;-87
2022/04/03 10:43:06;;;;;;;5.72;5.22;;;;;;;5.03;61.72;100917.03;5109355;28;20396;-85
2022/04/03 10:45:37;;;;;;;8.10;5.22;;;;;;;5.20;62.08;100921.03;5109462;28;20394;-86
2022/04/03 10:48:25;;;;;;;6.72;5.47;;;;;;;5.39;60.29;100914.13;5112502;28;20463;-87
2022/04/03 10:51:05;;;;;;;9.83;9.03;;;;;;;5.48;59.07;100904.00;5107116;28;20450;-88
2022/04/03 10:53:47;;;;;;;6.82;6.20;;;;;;;5.59;58.40;100916.88;5111197;28;20484;-88
2022/04/03 10:56:24;;;;;;;5.88;5.28;;;;;;;5.68;58.07;100913.81;5113186;28;20434;-87
2022/04/03 10:58:53;;;;;;;5.15;4.20;;;;;;;5.76;57.19;100913.59;5108493;28;20408;-87
2022/04/03 11:01:37;;;;;;;6.35;4.93;;;;;;;5.76;56.46;100908.22;5111374;28;20442;-86
2022/04/03 11:04:10;;;;;;;6.45;4.60;;;;;;;5.80;56.48;100910.50;5102645;28;20483;-88
2022/04/03 11:06:37;;;;;;;6.28;4.28;;;;;;;5.77;55.13;100903.69;5106470;28;20398;-86
2022/04/03 11:09:11;;;;;;;6.10;4.55;;;;;;;5.65;54.06;100905.31;5105342;28;20403;-86
2022/04/03 11:11:37;;;;;;;5.28;4.78;;;;;;;5.42;54.85;100908.34;5111394;28;20404;-86
2022/04/03 11:14:06;;;;;;;6.00;5.47;;;;;;;5.49;55.57;100911.06;5106478;28;20415;-85
2022/04/03 11:16:50;;;;;;;6.85;4.93;;;;;;;5.37;55.91;100910.78;5099659;28;20405;-87
2022/04/03 11:19:35;;;;;;;5.05;4.47;;;;;;;5.40;54.61;100914.94;5102595;28;20775;-88
2022/04/03 11:22:02;;;;;;;5.53;5.03;;;;;;;5.38;55.40;100909.75;5110779;28;20415;-86
2022/04/03 11:24:27;;;;;;;5.60;5.10;;;;;;;5.31;56.15;100908.06;5113892;28;20408;-80